Time;durP1;ratioP1;P1;durP2;ratioP2;P2;SDS_P1;SDS_P2;PMS_P1;PMS_P2;Temp;Humidity;BMP_temperature;BMP_pressure;BME280_temperature;BME280_humidity;BME280_pressure;Samples;Min_cycle;Max_cycle;Signal;HPM_P1;HPM_P2
2023/12/16 00:01:51;;;;;;;0.30;0.30;;;;;;;;;;5074493;28;20056;-65
2023/12/16 00:04:17;;;;;;;0.20;0.20;;;;;;;;;;5074449;28;20058;-66
2023/12/16 00:06:42;;;;;;;1.13;1.02;;;6.30;98.20;;;;;;5074240;28;20055;-66
2023/12/16 00:09:08;;;;;;;0.20;0.20;;;7.20;99.90;;;;;;5074316;28;20472;-65
2023/12/16 00:11:34;;;;;;;0.75;0.75;;;7.40;99.90;;;;;;5074541;28;20055;-66
2023/12/16 00:13:59;;;;;;;0.50;0.50;;;5.50;99.90;;;;;;5086125;28;20463;-67
2023/12/16 00:16:25;;;;;;;0.47;0.47;;;;;;;;;;5087856;28;20056;-66
2023/12/16 00:18:52;;;;;;;6.38;0.68;;;7.00;99.90;;;;;;5093903;28;20048;-66
2023/12/16 00:21:17;;;;;;;0.93;0.88;;;6.20;99.00;;;;;;5093387;28;20070;-66
2023/12/16 00:23:43;;;;;;;4.07;3.28;;;6.90;99.90;;;;;;5085842;28;20044;-67
2023/12/16 00:26:09;;;;;;;0.30;0.30;;;7.20;99.90;;;;;;5088113;28;20125;-65
2023/12/16 00:28:35;;;;;;;0.22;0.22;;;;;;;;;;5093776;28;20066;-66
2023/12/16 00:31:01;;;;;;;0.40;0.40;;;;;;;;;;5092604;28;20496;-66
2023/12/16 00:33:27;;;;;;;0.43;0.43;;;;;;;;;;5093339;28;20055;-65
2023/12/16 00:35:53;;;;;;;0.30;0.30;;;6.90;97.90;;;;;;5091970;28;20052;-66
2023/12/16 00:38:19;;;;;;;0.93;0.93;;;;;;;;;;5072176;28;20059;-66
2023/12/16 00:40:45;;;;;;;0.20;0.20;;;;;;;;;;5073460;28;20492;-66
2023/12/16 00:43:11;;;;;;;0.40;0.40;;;5.80;94.10;;;;;;5072629;28;20396;-66
2023/12/16 00:45:37;;;;;;;0.20;0.20;;;6.20;91.10;;;;;;5073593;28;20048;-66
2023/12/16 00:48:02;;;;;;;0.45;0.45;;;7.20;93.30;;;;;;5093431;28;20090;-68
2023/12/16 00:50:28;;;;;;;0.20;0.20;;;6.00;85.10;;;;;;5092421;28;20052;-66
2023/12/16 00:52:54;;;;;;;0.20;0.20;;;6.70;91.10;;;;;;5093426;28;20048;-66
2023/12/16 00:55:20;;;;;;;0.20;0.20;;;;;;;;;;5093097;28;20044;-66
2023/12/16 00:57:46;;;;;;;0.20;0.20;;;;;;;;;;5085791;28;20412;-66
2023/12/16 01:00:12;;;;;;;0.28;0.28;;;5.60;83.80;;;;;;5086273;28;20051;-66
2023/12/16 01:02:38;;;;;;;0.30;0.30;;;;;;;;;;5092503;28;20044;-66
2023/12/16 01:05:04;;;;;;;0.30;0.30;;;;;;;;;;5091657;28;20507;-66
2023/12/16 01:07:30;;;;;;;0.35;0.35;;;5.40;74.10;;;;;;5093384;28;20052;-66
2023/12/16 01:09:56;;;;;;;0.50;0.50;;;;;;;;;;5078414;28;20063;-66
2023/12/16 01:12:22;;;;;;;0.20;0.20;;;;;;;;;;5072917;28;20052;-66
2023/12/16 01:14:47;;;;;;;0.30;0.30;;;6.80;66.50;;;;;;5086614;28;20054;-66
2023/12/16 01:17:13;;;;;;;0.20;0.20;;;5.70;66.00;;;;;;5092198;28;20036;-66
2023/12/16 01:19:39;;;;;;;0.47;0.47;;;;;;;;;;5092061;28;20056;-65
2023/12/16 01:22:05;;;;;;;0.30;0.30;;;6.60;59.70;;;;;;5091979;28;20055;-66
2023/12/16 01:24:35;;;;;;;0.20;0.20;;;6.60;54.60;;;;;;5090729;28;20461;-66
2023/12/16 01:27:01;;;;;;;0.38;0.38;;;;;;;;;;5092149;28;20043;-66
2023/12/16 01:29:26;;;;;;;1.85;0.93;;;6.50;50.20;;;;;;5091008;28;20144;-66
2023/12/16 01:31:52;;;;;;;0.30;0.30;;;6.50;52.20;;;;;;5091729;28;20532;-66
2023/12/16 01:34:18;;;;;;;0.30;0.30;;;6.50;51.80;;;;;;5090351;28;20765;-65
2023/12/16 01:36:43;;;;;;;1.75;0.88;;;6.80;52.60;;;;;;5084723;28;20101;-65
2023/12/16 01:39:09;;;;;;;1.13;0.88;;;;;;;;;;5072708;28;20052;-65
2023/12/16 01:41:35;;;;;;;0.30;0.30;;;5.60;54.80;;;;;;5092720;28;20051;-69
2023/12/16 01:44:01;;;;;;;0.30;0.30;;;;;;;;;;5092480;28;20036;-66
2023/12/16 01:46:27;;;;;;;0.30;0.30;;;6.70;50.70;;;;;;5073081;28;20052;-66
2023/12/16 01:48:53;;;;;;;0.73;0.73;;;;;;;;;;5072611;28;20056;-66
2023/12/16 01:51:19;;;;;;;0.20;0.20;;;6.40;50.70;;;;;;5072569;28;20040;-65
2023/12/16 01:53:46;;;;;;;0.28;0.28;;;;;;;;;;5071671;28;20097;-66
2023/12/16 01:56:12;;;;;;;0.40;0.40;;;;;;;;;;5072705;28;20049;-67
2023/12/16 01:58:39;;;;;;;0.50;0.50;;;6.80;37.80;;;;;;5072999;28;20532;-66
2023/12/16 02:01:05;;;;;;;0.22;0.22;;;6.10;41.80;;;;;;5072576;28;20085;-65
2023/12/16 02:03:31;;;;;;;0.20;0.20;;;6.40;37.40;;;;;;5071847;28;20476;-66
2023/12/16 02:05:57;;;;;;;0.20;0.20;;;;;;;;;;5072689;28;20658;-67
2023/12/16 02:08:24;;;;;;;0.30;0.30;;;6.60;32.30;;;;;;5072473;28;20048;-66
2023/12/16 02:10:50;;;;;;;0.20;0.20;;;6.00;34.90;;;;;;5072161;28;20381;-66
2023/12/16 02:13:18;;;;;;;0.38;0.38;;;5.60;33.90;;;;;;5072033;28;20136;-65
2023/12/16 02:15:44;;;;;;;0.40;0.40;;;6.50;32.00;;;;;;5072350;28;20053;-65
2023/12/16 02:18:11;;;;;;;0.20;0.20;;;;;;;;;;5072307;28;20496;-65
2023/12/16 02:20:37;;;;;;;0.10;0.10;;;;;;;;;;5071599;28;20060;-65
2023/12/16 02:23:05;;;;;;;0.77;0.77;;;6.40;34.60;;;;;;5072261;28;20048;-65
2023/12/16 02:25:31;;;;;;;0.20;0.20;;;5.90;31.00;;;;;;5070550;28;20141;-67
2023/12/16 02:27:57;;;;;;;0.30;0.30;;;5.50;32.90;;;;;;5071846;28;20082;-65
2023/12/16 02:30:24;;;;;;;0.32;0.20;;;5.70;32.60;;;;;;5071041;28;20052;-67
2023/12/16 02:32:52;;;;;;;0.40;0.40;;;5.20;34.50;;;;;;5072419;28;20404;-65
2023/12/16 02:35:19;;;;;;;0.13;0.13;;;;;;;;;;5080834;28;20040;-65
2023/12/16 02:37:45;;;;;;;0.60;0.60;;;;;;;;;;5075930;28;20078;-66
2023/12/16 02:40:11;;;;;;;0.30;0.30;;;5.00;41.50;;;;;;5071354;28;20044;-65
2023/12/16 02:42:36;;;;;;;0.38;0.38;;;5.20;39.50;;;;;;5073813;28;20044;-66
2023/12/16 02:45:02;;;;;;;0.20;0.20;;;5.40;46.80;;;;;;5091858;28;20119;-65
2023/12/16 02:47:28;;;;;;;0.85;0.85;;;5.50;47.50;;;;;;5075185;28;20047;-65
2023/12/16 02:49:54;;;;;;;0.20;0.20;;;6.40;44.20;;;;;;5071828;28;20049;-65
2023/12/16 02:52:19;;;;;;;0.20;0.20;;;5.30;50.90;;;;;;5086912;28;20039;-67
2023/12/16 02:54:45;;;;;;;1.63;1.55;;;5.80;47.60;;;;;;5091755;28;20058;-65
2023/12/16 02:57:11;;;;;;;0.20;0.20;;;;;;;;;;5090708;28;20036;-67
2023/12/16 02:59:37;;;;;;;0.30;0.30;;;;;;;;;;5091415;28;20048;-66
2023/12/16 03:02:03;;;;;;;0.20;0.20;;;5.10;54.60;;;;;;5090873;28;20428;-65
2023/12/16 03:04:29;;;;;;;0.20;0.20;;;;;;;;;;5090940;28;20131;-67
2023/12/16 03:06:55;;;;;;;0.35;0.28;;;;;;;;;;5090709;28;20150;-65
2023/12/16 03:09:21;;;;;;;0.30;0.30;;;6.30;57.60;;;;;;5091066;28;20039;-66
2023/12/16 03:11:47;;;;;;;2.35;2.15;;;5.00;55.70;;;;;;5090618;28;20063;-66
2023/12/16 03:14:13;;;;;;;0.38;0.38;;;;;;;;;;5091186;28;20048;-66
2023/12/16 03:16:39;;;;;;;0.32;0.30;;;6.20;69.20;;;;;;5090747;28;20056;-66
2023/12/16 03:19:04;;;;;;;6.72;1.20;;;5.80;68.70;;;;;;5082023;28;20067;-65
2023/12/16 03:21:30;;;;;;;0.20;0.20;;;;;;;;;;5071695;28;20052;-65
2023/12/16 03:23:56;;;;;;;0.50;0.50;;;5.30;60.20;;;;;;5071142;28;20076;-67
2023/12/16 03:26:22;;;;;;;4.45;0.52;;;;;;;;;;5071560;28;20125;-67
2023/12/16 03:28:48;;;;;;;0.38;0.35;;;;;;;;;;5071213;28;20423;-65
2023/12/16 03:31:14;;;;;;;0.50;0.50;;;6.70;64.80;;;;;;5053593;28;20040;-66
2023/12/16 03:33:40;;;;;;;1.83;1.48;;;5.20;68.00;;;;;;5075285;28;20040;-66
2023/12/16 03:36:06;;;;;;;;;;;;;;;;;;5091031;28;20075;-65
2023/12/16 03:38:32;;;;;;;5.38;0.50;;;;;;;;;;5086102;28;19968;-68
2023/12/16 03:40:58;;;;;;;1.02;0.30;;;5.30;75.90;;;;;;5076271;28;20041;-66
2023/12/16 03:43:23;;;;;;;0.22;0.22;;;5.30;81.10;;;;;;5094917;28;20044;-68
2023/12/16 03:45:49;;;;;;;0.60;0.60;;;;;;;;;;5092398;28;20050;-65
2023/12/16 03:48:16;;;;;;;0.20;0.20;;;;;;;;;;5083525;28;20052;-65
2023/12/16 03:50:41;;;;;;;0.40;0.40;;;5.10;81.70;;;;;;5094233;28;20148;-65
2023/12/16 03:53:07;;;;;;;2.22;0.90;;;;;;;;;;5086597;28;20080;-66
2023/12/16 03:55:33;;;;;;;0.20;0.20;;;5.40;86.20;;;;;;5089480;28;20127;-66
2023/12/16 03:57:59;;;;;;;1.17;1.08;;;;;;;;;;5094274;28;20119;-65
2023/12/16 04:00:25;;;;;;;0.30;0.30;;;5.00;89.10;;;;;;5094109;28;20047;-65
2023/12/16 04:02:51;;;;;;;0.47;0.47;;;;;;;;;;5094172;28;20050;-65
2023/12/16 04:05:17;;;;;;;0.32;0.32;;;;;;;;;;5079478;28;20145;-65
2023/12/16 04:07:43;;;;;;;0.20;0.20;;;;;;;;;;5074498;28;20173;-65
2023/12/16 04:10:10;;;;;;;0.22;0.22;;;6.60;93.50;;;;;;5074202;28;20052;-66
2023/12/16 04:12:35;;;;;;;;;;;6.40;92.90;;;;;;5074966;28;20462;-66
2023/12/16 04:15:01;;;;;;;0.28;0.28;;;;;;;;;;5074426;28;19920;-65
2023/12/16 04:17:27;;;;;;;0.28;0.28;;;;;;;;;;5074607;28;20143;-66
2023/12/16 04:19:54;;;;;;;0.30;0.30;;;5.20;99.10;;;;;;5073978;28;20118;-66
2023/12/16 04:22:20;;;;;;;;;;;7.10;99.90;;;;;;5075098;28;20052;-66
2023/12/16 04:24:47;;;;;;;0.30;0.30;;;;;;;;;;5074237;28;20291;-65
2023/12/16 04:27:13;;;;;;;0.10;0.10;;;;;;;;;;5074746;28;20059;-66
2023/12/16 04:29:39;;;;;;;2.00;0.70;;;;;;;;;;5074224;28;20415;-65
2023/12/16 04:32:05;;;;;;;0.68;0.68;;;7.20;99.90;;;;;;5074398;28;20108;-67
2023/12/16 04:34:31;;;;;;;0.55;0.55;;;;;;;;;;5076568;28;20040;-65
2023/12/16 04:36:57;;;;;;;3.95;3.03;;;4.50;99.90;;;;;;5093939;28;20104;-65
2023/12/16 04:39:23;;;;;;;0.30;0.30;;;;;;;;;;5091515;28;20044;-67
2023/12/16 04:41:49;;;;;;;0.30;0.30;;;4.70;99.90;;;;;;5073959;28;20048;-66
2023/12/16 04:44:15;;;;;;;0.20;0.20;;;;;;;;;;5072778;28;20067;-66
2023/12/16 04:46:40;;;;;;;1.30;0.77;;;4.40;99.90;;;;;;5074097;28;20071;-67
2023/12/16 04:49:06;;;;;;;0.82;0.80;;;4.50;99.90;;;;;;5073704;28;20045;-68
2023/12/16 04:51:31;;;;;;;0.20;0.20;;;7.30;99.90;;;;;;5074276;28;20044;-65
2023/12/16 04:53:58;;;;;;;9.60;0.70;;;6.10;99.90;;;;;;5073348;28;20127;-65
2023/12/16 04:56:23;;;;;;;;;;;6.80;99.90;;;;;;5074532;28;20130;-65
2023/12/16 04:58:50;;;;;;;0.45;0.45;;;;;;;;;;5074474;28;19993;-65
2023/12/16 05:01:16;;;;;;;10.70;0.90;;;;;;;;;;5074113;28;20540;-65
2023/12/16 05:03:41;;;;;;;0.63;0.63;;;7.30;99.90;;;;;;5073433;28;20056;-65
2023/12/16 05:06:08;;;;;;;0.43;0.43;;;6.50;99.90;;;;;;5073581;28;20103;-66
2023/12/16 05:08:34;;;;;;;0.80;0.80;;;7.70;99.90;;;;;;5073532;28;20052;-65
2023/12/16 05:11:00;;;;;;;0.30;0.30;;;7.00;99.90;;;;;;5082769;28;20119;-65
2023/12/16 05:13:26;;;;;;;0.80;0.75;;;7.10;99.90;;;;;;5092538;28;20135;-65
2023/12/16 05:15:52;;;;;;;0.30;0.30;;;;;;;;;;5092987;28;20558;-66
2023/12/16 05:18:18;;;;;;;12.38;1.17;;;4.70;99.90;;;;;;5091891;28;20044;-67
2023/12/16 05:20:44;;;;;;;0.38;0.38;;;;;;;;;;5092672;28;20048;-66
2023/12/16 05:23:10;;;;;;;;;;;5.10;99.90;;;;;;5092457;28;20083;-65
2023/12/16 05:25:36;;;;;;;0.77;0.77;;;5.40;99.90;;;;;;5092934;28;20020;-66
2023/12/16 05:28:02;;;;;;;2.25;2.00;;;4.80;99.90;;;;;;5091987;28;20051;-65
2023/12/16 05:30:27;;;;;;;1.33;0.98;;;5.00;99.90;;;;;;5093168;28;20040;-65
2023/12/16 05:32:53;;;;;;;1.13;0.57;;;7.90;99.90;;;;;;5092386;28;20131;-66
2023/12/16 05:35:19;;;;;;;6.88;0.47;;;5.60;99.90;;;;;;5092936;28;20044;-66
2023/12/16 05:37:46;;;;;;;0.47;0.47;;;;;;;;;;5092394;28;20097;-65
2023/12/16 05:40:11;;;;;;;;;;;7.80;99.90;;;;;;5093086;28;20055;-65
2023/12/16 05:42:37;;;;;;;0.30;0.30;;;7.70;99.90;;;;;;5091293;28;19920;-65
2023/12/16 05:45:03;;;;;;;4.97;1.75;;;5.20;99.90;;;;;;5092635;28;20051;-65
2023/12/16 05:47:29;;;;;;;;;;;;;;;;;;5092276;28;20059;-66
2023/12/16 05:49:55;;;;;;;0.40;0.40;;;7.80;99.90;;;;;;5092386;28;20005;-65
2023/12/16 05:52:21;;;;;;;13.15;0.63;;;;;;;;;;5092278;28;20480;-65
2023/12/16 05:54:47;;;;;;;0.55;0.43;;;5.80;99.90;;;;;;5081475;28;20052;-65
2023/12/16 05:57:13;;;;;;;0.90;0.90;;;8.20;99.90;;;;;;5071971;28;20056;-65
2023/12/16 05:59:38;;;;;;;0.63;0.63;;;6.20;99.90;;;;;;5072031;28;20086;-65
2023/12/16 06:02:04;;;;;;;0.85;0.25;;;4.70;99.90;;;;;;5072729;28;20083;-66
2023/12/16 06:04:30;;;;;;;0.32;0.32;;;;;;;;;;5072199;28;20053;-65
2023/12/16 06:06:56;;;;;;;0.47;0.47;;;4.00;99.90;;;;;;5072681;28;20411;-65
2023/12/16 06:09:22;;;;;;;0.70;0.70;;;5.70;99.90;;;;;;5072348;28;20119;-66
2023/12/16 06:11:47;;;;;;;0.63;0.55;;;8.30;99.90;;;;;;5072366;28;20044;-65
2023/12/16 06:14:13;;;;;;;0.52;0.52;;;;;;;;;;5072391;28;20047;-65
2023/12/16 06:16:39;;;;;;;0.50;0.43;;;;;;;;;;5073110;28;20385;-66
2023/12/16 06:19:05;;;;;;;1.30;0.80;;;;;;;;;;5072391;28;20105;-65
2023/12/16 06:21:31;;;;;;;0.45;0.43;;;4.40;99.90;;;;;;5073165;28;20044;-66
2023/12/16 06:24:00;;;;;;;1.33;0.60;;;4.50;99.90;;;;;;5072379;28;20041;-66
2023/12/16 06:26:26;;;;;;;1.00;1.00;;;8.80;99.90;;;;;;5072779;28;20063;-66
2023/12/16 06:28:52;;;;;;;10.00;1.20;;;4.40;99.90;;;;;;5072054;28;20416;-66
2023/12/16 06:31:18;;;;;;;0.22;0.22;;;6.00;99.90;;;;;;5073495;28;20044;-66
2023/12/16 06:33:44;;;;;;;;;;;;;;;;;;5073054;28;20048;-67
2023/12/16 06:36:10;;;;;;;0.40;0.40;;;5.40;99.90;;;;;;5085425;28;20300;-65
2023/12/16 06:38:36;;;;;;;0.50;0.50;;;8.50;99.90;;;;;;5071212;28;20052;-66
2023/12/16 06:41:03;;;;;;;2.83;1.55;;;7.50;99.90;;;;;;5071673;28;20052;-65
2023/12/16 06:43:29;;;;;;;3.47;0.80;;;4.10;99.90;;;;;;5071278;28;20157;-66
2023/12/16 06:45:54;;;;;;;0.93;0.93;;;4.10;99.90;;;;;;5071598;28;20114;-68
2023/12/16 06:48:21;;;;;;;2.63;1.00;;;9.70;99.90;;;;;;5071485;28;20098;-66
2023/12/16 06:50:46;;;;;;;2.30;0.88;;;9.20;99.90;;;;;;5071788;28;20091;-66
2023/12/16 06:53:12;;;;;;;1.80;0.63;;;9.10;99.90;;;;;;5071206;28;20080;-66
2023/12/16 06:55:38;;;;;;;0.60;0.60;;;8.70;99.90;;;;;;5071503;28;20051;-66
2023/12/16 06:58:04;;;;;;;0.70;0.70;;;;;;;;;;5071467;28;20045;-67
2023/12/16 07:00:30;;;;;;;1.30;1.25;;;;;;;;;;5071230;28;20048;-66
2023/12/16 07:02:56;;;;;;;0.38;0.38;;;;;;;;;;5071145;28;20140;-66
2023/12/16 07:05:22;;;;;;;2.65;1.20;;;6.80;99.90;;;;;;5070421;28;20146;-67
2023/12/16 07:07:49;;;;;;;2.55;1.20;;;3.70;99.90;;;;;;5070230;28;20091;-68
2023/12/16 07:10:14;;;;;;;1.33;0.85;;;6.10;99.90;;;;;;5073699;28;20159;-68
2023/12/16 07:12:40;;;;;;;1.20;1.10;;;10.20;99.90;;;;;;5081852;28;20115;-67
2023/12/16 07:15:07;;;;;;;3.03;1.60;;;4.00;99.90;;;;;;5071388;28;20045;-67
2023/12/16 07:17:33;;;;;;;0.80;0.63;;;4.80;99.90;;;;;;5060520;28;20056;-67
2023/12/16 07:19:59;;;;;;;0.40;0.40;;;9.00;99.90;;;;;;5078264;28;20593;-67
2023/12/16 07:22:24;;;;;;;1.60;1.50;;;9.20;99.90;;;;;;5071962;28;20066;-68
2023/12/16 07:24:51;;;;;;;0.40;0.40;;;;;;;;;;5077422;28;20105;-68
2023/12/16 07:27:16;;;;;;;6.13;2.08;;;4.90;99.90;;;;;;5073292;28;20080;-67
2023/12/16 07:29:42;;;;;;;0.40;0.40;;;8.40;99.90;;;;;;5077787;28;20084;-67
2023/12/16 07:32:08;;;;;;;12.20;1.55;;;4.40;99.90;;;;;;5074005;28;20041;-66
2023/12/16 07:34:33;;;;;;;0.63;0.63;;;3.80;99.90;;;;;;5076984;28;20404;-68
2023/12/16 07:36:59;;;;;;;0.77;0.70;;;6.80;99.90;;;;;;5080725;28;20067;-67
2023/12/16 07:39:25;;;;;;;8.23;0.90;;;8.60;99.90;;;;;;5069816;28;20051;-67
2023/12/16 07:41:50;;;;;;;1.25;1.23;;;10.50;99.90;;;;;;5070441;28;20496;-68
2023/12/16 07:44:16;;;;;;;0.68;0.68;;;;;;;;;;5072783;28;20059;-67
2023/12/16 07:46:43;;;;;;;0.20;0.20;;;;;;;;;;5087384;28;20051;-68
2023/12/16 07:49:10;;;;;;;0.70;0.63;;;;;;;;;;5079915;28;20045;-67
2023/12/16 07:51:36;;;;;;;2.17;1.30;;;9.80;99.90;;;;;;5059971;28;20060;-69
2023/12/16 07:54:02;;;;;;;0.57;0.57;;;10.10;99.90;;;;;;5070244;28;20470;-68
2023/12/16 07:56:28;;;;;;;;;;;9.50;99.90;;;;;;5070693;28;20500;-68
2023/12/16 07:58:54;;;;;;;0.57;0.57;;;9.70;99.90;;;;;;5070680;28;19927;-68
2023/12/16 08:01:20;;;;;;;1.70;1.20;;;9.90;99.90;;;;;;5069198;28;20048;-68
2023/12/16 08:03:47;;;;;;;3.72;1.60;;;7.60;99.90;;;;;;5069484;28;20060;-68
2023/12/16 08:06:16;;;;;;;3.97;1.60;;;;;;;;;;5070179;28;20052;-68
2023/12/16 08:08:43;;;;;;;0.40;0.40;;;7.10;99.90;;;;;;5069223;28;20496;-69
2023/12/16 08:11:10;;;;;;;0.55;0.55;;;6.10;99.90;;;;;;5070454;28;20143;-68
2023/12/16 08:13:35;;;;;;;;;;;3.80;99.90;;;;;;5070977;28;20412;-70
2023/12/16 08:16:04;;;;;;;17.38;2.72;;;5.10;99.90;;;;;;5069653;28;19927;-68
2023/12/16 08:18:30;;;;;;;3.35;1.20;;;10.10;99.90;;;;;;5072925;28;20416;-68
2023/12/16 08:20:56;;;;;;;1.67;1.58;;;4.20;99.90;;;;;;5074499;28;20057;-68
2023/12/16 08:23:22;;;;;;;0.75;0.65;;;10.30;99.90;;;;;;5088701;28;20036;-68
2023/12/16 08:25:48;;;;;;;1.15;1.05;;;4.90;99.90;;;;;;5092922;28;20048;-68
2023/12/16 08:28:13;;;;;;;0.52;0.52;;;4.30;99.90;;;;;;5090961;28;20047;-68
2023/12/16 08:30:39;;;;;;;2.47;1.38;;;4.10;99.90;;;;;;5092556;28;20048;-68
2023/12/16 08:33:05;;;;;;;2.88;0.95;;;;;;;;;;5071700;28;20044;-68
2023/12/16 08:35:31;;;;;;;1.73;1.63;;;7.10;99.90;;;;;;5085902;28;20044;-68
2023/12/16 08:37:57;;;;;;;4.85;1.80;;;10.00;99.90;;;;;;5079401;28;20369;-68
2023/12/16 08:40:24;;;;;;;1.92;1.27;;;4.00;99.90;;;;;;5081869;28;20556;-68
2023/12/16 08:42:50;;;;;;;1.45;0.77;;;;;;;;;;5072775;28;20090;-68
2023/12/16 08:45:16;;;;;;;1.38;1.27;;;5.40;99.90;;;;;;5072306;28;20508;-69
2023/12/16 08:47:43;;;;;;;0.93;0.80;;;5.80;99.90;;;;;;5074742;28;20044;-69
2023/12/16 08:50:09;;;;;;;4.13;1.55;;;4.30;99.90;;;;;;5092389;28;20082;-67
2023/12/16 08:52:36;;;;;;;0.80;0.75;;;;;;;;;;5075611;28;20048;-68
2023/12/16 08:55:03;;;;;;;3.47;1.20;;;7.90;99.90;;;;;;5074262;28;20102;-69
2023/12/16 08:57:29;;;;;;;0.80;0.80;;;10.40;99.90;;;;;;5072422;28;20044;-68
2023/12/16 08:59:55;;;;;;;1.73;1.63;;;9.10;99.90;;;;;;5083747;28;20273;-69
2023/12/16 09:02:21;;;;;;;0.45;0.45;;;4.40;99.90;;;;;;5092967;28;20046;-69
2023/12/16 09:04:47;;;;;;;12.00;1.50;;;11.00;99.90;;;;;;5093248;28;20055;-69
2023/12/16 09:07:13;;;;;;;2.55;1.23;;;7.30;99.90;;;;;;5087901;28;20067;-67
2023/12/16 09:09:39;;;;;;;3.92;1.70;;;4.90;99.90;;;;;;5084867;28;20040;-68
2023/12/16 09:12:05;;;;;;;;;;;5.50;99.90;;;;;;5093004;28;20503;-68
2023/12/16 09:14:32;;;;;;;2.53;2.42;;;8.70;99.90;;;;;;5093224;28;19958;-68
2023/12/16 09:16:57;;;;;;;26.05;1.30;;;11.20;99.90;;;;;;5074642;28;20040;-68
2023/12/16 09:19:23;;;;;;;8.45;1.63;;;4.50;99.90;;;;;;5073125;28;20516;-68
2023/12/16 09:21:49;;;;;;;0.40;0.40;;;;;;;;;;5091267;28;20047;-68
2023/12/16 09:24:15;;;;;;;1.08;1.00;;;11.90;99.90;;;;;;5081490;28;20052;-68
2023/12/16 09:26:41;;;;;;;2.97;1.75;;;11.70;99.90;;;;;;5077619;28;20354;-68
2023/12/16 09:29:09;;;;;;;0.75;0.75;;;11.50;99.90;;;;;;5080487;28;20056;-69
2023/12/16 09:31:34;;;;;;;1.75;1.08;;;6.10;99.90;;;;;;5078162;28;20040;-68
2023/12/16 09:34:00;;;;;;;3.70;1.25;;;10.10;99.90;;;;;;5092788;28;20092;-68
2023/12/16 09:36:29;;;;;;;1.67;1.58;;;7.70;99.90;;;;;;5086844;28;20045;-68
2023/12/16 09:38:55;;;;;;;4.47;1.40;;;9.90;99.90;;;;;;5084776;28;20043;-69
2023/12/16 09:41:25;;;;;;;3.80;3.53;;;9.40;99.90;;;;;;5091993;28;20068;-68
2023/12/16 09:43:53;;;;;;;3.25;1.25;;;4.40;99.90;;;;;;5080150;28;20128;-68
2023/12/16 09:46:32;;;;;;;0.63;0.63;;;6.20;99.90;;;;;;5078400;28;20044;-68
2023/12/16 09:48:59;;;;;;;0.68;0.68;;;5.10;99.90;;;;;;5090683;28;20556;-67
2023/12/16 09:51:25;;;;;;;0.57;0.57;;;5.00;99.90;;;;;;5072822;28;20048;-68
2023/12/16 09:53:52;;;;;;;10.02;1.60;;;6.00;99.90;;;;;;5072946;28;20123;-68
2023/12/16 09:56:18;;;;;;;1.20;1.10;;;7.80;99.90;;;;;;5073134;28;20075;-68
2023/12/16 09:58:46;;;;;;;1.15;1.05;;;11.80;99.90;;;;;;5072805;28;20052;-69
2023/12/16 10:01:13;;;;;;;1.15;1.05;;;7.10;99.90;;;;;;5072912;28;20044;-69
2023/12/16 10:03:41;;;;;;;0.45;0.45;;;9.80;99.90;;;;;;5072909;28;20051;-69
2023/12/16 10:06:08;;;;;;;0.40;0.40;;;5.10;99.90;;;;;;5072938;28;20396;-69
2023/12/16 10:08:35;;;;;;;1.13;0.60;;;4.30;99.90;;;;;;5072957;28;20051;-69
2023/12/16 10:11:02;;;;;;;0.35;0.35;;;7.50;99.90;;;;;;5072343;28;20084;-68
2023/12/16 10:13:30;;;;;;;2.63;2.42;;;10.00;99.90;;;;;;5072868;28;20119;-66
2023/12/16 10:15:57;;;;;;;3.70;1.23;;;11.90;99.90;;;;;;5072107;28;20133;-68
2023/12/16 10:18:23;;;;;;;0.28;0.28;;;5.90;99.90;;;;;;5072869;28;20194;-69
2023/12/16 10:20:49;;;;;;;0.98;0.98;;;7.00;99.90;;;;;;5066886;28;20630;-68
2023/12/16 10:23:15;;;;;;;0.50;0.50;;;10.40;99.90;;;;;;5073294;28;20117;-68
2023/12/16 10:25:41;;;;;;;0.82;0.82;;;6.10;99.90;;;;;;5089266;28;20400;-69
2023/12/16 10:28:07;;;;;;;0.50;0.50;;;11.40;99.90;;;;;;5076149;28;20047;-67
2023/12/16 10:30:33;;;;;;;2.35;1.23;;;9.40;99.90;;;;;;5067269;28;20048;-68
2023/12/16 10:33:06;;;;;;;0.60;0.60;;;5.40;99.90;;;;;;5075529;28;20050;-68
2023/12/16 10:35:33;;;;;;;0.75;0.68;;;8.90;99.90;;;;;;5082066;28;20389;-70
2023/12/16 10:37:59;;;;;;;3.38;0.95;;;12.00;99.90;;;;;;5065126;28;20697;-70
2023/12/16 10:40:26;;;;;;;;;;;5.90;99.90;;;;;;5083941;28;20044;-70
2023/12/16 10:42:51;;;;;;;1.63;1.25;;;9.40;99.90;;;;;;5073641;28;19923;-69
2023/12/16 10:45:17;;;;;;;1.15;0.80;;;11.60;99.90;;;;;;5088686;28;20480;-68
2023/12/16 10:47:45;;;;;;;1.05;0.90;;;6.00;99.90;;;;;;5078394;28;20051;-68
2023/12/16 10:50:13;;;;;;;0.98;0.95;;;10.70;99.90;;;;;;5090771;28;20148;-69
2023/12/16 10:52:41;;;;;;;4.00;0.77;;;8.90;99.90;;;;;;5079116;28;20053;-68
2023/12/16 10:55:14;;;;;;;0.98;0.98;;;5.20;99.90;;;;;;5090696;28;20051;-68
2023/12/16 10:57:59;;;;;;;0.57;0.40;;;10.80;99.90;;;;;;5071218;28;20055;-68
2023/12/16 11:00:28;;;;;;;1.25;1.15;;;11.60;99.90;;;;;;5069759;28;20480;-66
2023/12/16 11:03:07;;;;;;;1.25;1.15;;;5.70;99.90;;;;;;5070822;28;20139;-68
2023/12/16 11:05:48;;;;;;;0.65;0.63;;;4.60;99.90;;;;;;5072340;28;20075;-69
2023/12/16 11:08:15;;;;;;;0.70;0.70;;;11.70;99.90;;;;;;5053718;28;20114;-68
2023/12/16 11:10:41;;;;;;;0.45;0.45;;;11.70;99.90;;;;;;5066062;28;20082;-68
2023/12/16 11:13:08;;;;;;;0.30;0.30;;;5.20;99.90;;;;;;5079389;28;20044;-69
2023/12/16 11:15:35;;;;;;;2.00;1.00;;;12.10;99.90;;;;;;5080888;28;20040;-67
2023/12/16 11:18:04;;;;;;;2.05;0.75;;;12.20;99.90;;;;;;5082053;28;20036;-69
2023/12/16 11:20:42;;;;;;;1.15;1.15;;;11.10;99.90;;;;;;5083110;28;20059;-69
2023/12/16 11:23:09;;;;;;;0.70;0.70;;;12.00;99.90;;;;;;5083937;28;20048;-70
2023/12/16 11:25:36;;;;;;;0.50;0.50;;;11.10;99.90;;;;;;5083903;28;20396;-69
2023/12/16 11:28:02;;;;;;;;;;;7.90;99.90;;;;;;5084174;28;20091;-69
2023/12/16 11:30:29;;;;;;;1.15;1.15;;;11.40;99.90;;;;;;5084830;28;19925;-70
2023/12/16 11:32:57;;;;;;;13.00;1.35;;;12.20;99.90;;;;;;5083918;28;20507;-69
2023/12/16 11:35:45;;;;;;;2.10;0.68;;;4.50;99.90;;;;;;5085823;28;20040;-69
2023/12/16 11:38:44;;;;;;;0.43;0.40;;;7.40;99.90;;;;;;5068174;28;20044;-69
2023/12/16 11:41:11;;;;;;;3.75;0.98;;;12.70;99.90;;;;;;5068835;28;20118;-69
2023/12/16 11:43:50;;;;;;;0.93;0.93;;;6.50;99.90;;;;;;5069844;28;20048;-69
2023/12/16 11:46:37;;;;;;;1.23;1.13;;;12.00;99.90;;;;;;5070673;28;20408;-68
2023/12/16 11:49:05;;;;;;;1.40;1.30;;;12.50;99.90;;;;;;5069998;28;20558;-69
2023/12/16 11:51:35;;;;;;;2.75;1.50;;;4.90;99.90;;;;;;5070472;28;20052;-69
2023/12/16 11:54:03;;;;;;;0.85;0.85;;;6.30;99.90;;;;;;5073435;28;20041;-68
2023/12/16 11:56:28;;;;;;;1.85;0.90;;;12.90;99.90;;;;;;5074086;28;20123;-68
2023/12/16 11:59:00;;;;;;;1.60;1.50;;;10.30;99.90;;;;;;5074240;28;20136;-68
2023/12/16 12:01:28;;;;;;;1.05;0.95;;;10.10;99.90;;;;;;5074393;28;20048;-70
2023/12/16 12:03:55;;;;;;;1.02;0.82;;;5.90;99.90;;;;;;5074766;28;20084;-68
2023/12/16 12:06:22;;;;;;;1.52;1.00;;;12.30;99.90;;;;;;5074291;28;20099;-69
2023/12/16 12:08:47;;;;;;;1.25;0.77;;;12.40;99.90;;;;;;5074761;28;20396;-68
2023/12/16 12:11:16;;;;;;;0.45;0.45;;;7.40;99.90;;;;;;5074588;28;20048;-68
2023/12/16 12:13:43;;;;;;;0.80;0.80;;;12.20;99.90;;;;;;5073501;28;20058;-69
2023/12/16 12:16:12;;;;;;;1.25;1.05;;;11.10;99.90;;;;;;5074333;28;20486;-68
2023/12/16 12:18:39;;;;;;;0.30;0.30;;;6.40;99.90;;;;;;5074226;28;20083;-67
2023/12/16 12:21:06;;;;;;;1.52;0.68;;;13.20;99.90;;;;;;5074474;28;20044;-68
2023/12/16 12:23:33;;;;;;;0.77;0.77;;;5.20;99.90;;;;;;5074758;28;20492;-68
2023/12/16 12:25:58;;;;;;;0.30;0.30;;;6.00;99.90;;;;;;5073874;28;20119;-68
2023/12/16 12:28:24;;;;;;;2.03;1.85;;;10.90;99.90;;;;;;5075296;28;20132;-68
2023/12/16 12:30:50;;;;;;;0.38;0.38;;;5.10;99.90;;;;;;5074365;28;20041;-68
2023/12/16 12:33:17;;;;;;;1.08;0.95;;;5.60;99.90;;;;;;5074822;28;20052;-67
2023/12/16 12:35:42;;;;;;;1.80;1.48;;;7.10;99.90;;;;;;5086348;28;20099;-68
2023/12/16 12:38:08;;;;;;;0.95;0.93;;;12.80;99.90;;;;;;5092945;28;20040;-68
2023/12/16 12:40:34;;;;;;;0.38;0.38;;;12.10;99.90;;;;;;5093565;28;20193;-68
2023/12/16 12:43:00;;;;;;;3.17;0.95;;;9.20;99.90;;;;;;5073667;28;20505;-68
2023/12/16 12:45:26;;;;;;;0.35;0.35;;;12.90;99.90;;;;;;5085744;28;20047;-68
2023/12/16 12:47:53;;;;;;;0.55;0.55;;;7.90;99.90;;;;;;5092437;28;20044;-67
2023/12/16 12:50:23;;;;;;;0.93;0.40;;;5.20;99.90;;;;;;5092929;28;20052;-68
2023/12/16 12:52:49;;;;;;;0.75;0.75;;;5.90;99.90;;;;;;5078766;28;20052;-68
2023/12/16 12:55:17;;;;;;;0.98;0.98;;;12.40;99.90;;;;;;5092853;28;20040;-68
2023/12/16 12:57:45;;;;;;;2.75;1.40;;;11.60;99.90;;;;;;5092234;28;20558;-67
2023/12/16 13:00:11;;;;;;;2.63;1.65;;;11.80;99.90;;;;;;5093141;28;20105;-68
2023/12/16 13:02:37;;;;;;;1.15;1.05;;;10.40;99.90;;;;;;5092671;28;20076;-68
2023/12/16 13:05:03;;;;;;;0.63;0.63;;;9.60;99.90;;;;;;5091230;28;20088;-67
2023/12/16 13:07:29;;;;;;;3.85;0.73;;;12.60;99.90;;;;;;5092059;28;20074;-67
2023/12/16 13:09:55;;;;;;;0.50;0.50;;;11.40;99.90;;;;;;5092737;28;20395;-67
2023/12/16 13:12:21;;;;;;;2.30;0.85;;;6.30;99.90;;;;;;5092976;28;20146;-67
2023/12/16 13:14:47;;;;;;;2.42;1.38;;;12.70;99.90;;;;;;5091829;28;20036;-68
2023/12/16 13:17:13;;;;;;;0.50;0.50;;;8.40;99.90;;;;;;5079172;28;20403;-67